Time;durP1;ratioP1;P1;durP2;ratioP2;P2;SDS_P1;SDS_P2;PMS_P1;PMS_P2;Temp;Humidity;BMP_temperature;BMP_pressure;BME280_temperature;BME280_humidity;BME280_pressure;Samples;Min_cycle;Max_cycle;Signal;HPM_P1;HPM_P2
2022/06/23 00:00:25;;;;;;;137.30;126.30;;;19.20;63.00;;;;;;4993357;28;20149;-80
2022/06/23 00:02:55;;;;;;;136.00;125.00;;;19.20;63.10;;;;;;4992773;28;20057;-79
2022/06/23 00:05:27;;;;;;;138.55;127.57;;;19.10;63.30;;;;;;4992623;28;20600;-79
2022/06/23 00:07:56;;;;;;;137.68;126.80;;;19.10;63.40;;;;;;4992759;28;20098;-79
2022/06/23 00:10:26;;;;;;;137.00;126.20;;;19.00;63.60;;;;;;4992608;28;20055;-79
2022/06/23 00:12:54;;;;;;;135.48;124.78;;;19.00;63.80;;;;;;4994339;28;20141;-80
2022/06/23 00:15:27;;;;;;;135.95;125.15;;;18.90;63.80;;;;;;4978471;28;20130;-79
2022/06/23 00:18:00;;;;;;;136.68;125.93;;;18.90;64.00;;;;;;4994742;28;20057;-79
2022/06/23 00:20:32;;;;;;;134.93;124.10;;;18.90;64.10;;;;;;4997476;28;20130;-80
2022/06/23 00:23:07;;;;;;;137.40;126.50;;;18.80;64.40;;;;;;4994092;28;20058;-79
2022/06/23 00:25:52;;;;;;;136.20;125.40;;;18.80;64.40;;;;;;4993046;28;20125;-80
2022/06/23 00:28:23;;;;;;;134.60;123.78;;;18.70;63.70;;;;;;4993016;28;20055;-80
2022/06/23 00:30:54;;;;;;;135.75;124.95;;;18.70;65.10;;;;;;4994015;28;20069;-80
2022/06/23 00:33:24;;;;;;;135.43;124.65;;;18.60;65.40;;;;;;4994529;28;20050;-81
2022/06/23 00:35:52;;;;;;;136.07;125.20;;;18.60;65.40;;;;;;4994164;28;20125;-80
2022/06/23 00:38:24;;;;;;;134.88;124.22;;;18.50;65.50;;;;;;4978030;28;20184;-80
2022/06/23 00:40:53;;;;;;;136.80;125.80;;;18.50;65.50;;;;;;4978023;28;20143;-80
2022/06/23 00:43:21;;;;;;;137.90;126.80;;;18.40;65.60;;;;;;4995136;28;20073;-80
2022/06/23 00:45:53;;;;;;;136.85;125.55;;;18.40;66.00;;;;;;4995403;28;20059;-80
2022/06/23 00:48:26;;;;;;;135.48;124.50;;;18.40;66.10;;;;;;4977457;28;20102;-80
2022/06/23 00:50:59;;;;;;;135.48;124.57;;;18.30;66.30;;;;;;4993949;28;20047;-80
2022/06/23 00:53:31;;;;;;;134.83;123.83;;;18.30;66.50;;;;;;4977797;28;20539;-79
2022/06/23 00:56:08;;;;;;;134.65;123.65;;;18.20;66.60;;;;;;4993937;28;20058;-80
2022/06/23 00:58:41;;;;;;;135.80;124.70;;;18.20;66.70;;;;;;4993230;28;20109;-80
2022/06/23 01:01:16;;;;;;;134.40;123.32;;;18.20;67.10;;;;;;4993740;28;20051;-79
2022/06/23 01:03:52;;;;;;;132.32;121.47;;;18.10;67.20;;;;;;4994886;28;20055;-80
2022/06/23 01:06:26;;;;;;;134.63;123.53;;;18.10;67.60;;;;;;4994009;28;20050;-80
2022/06/23 01:08:58;;;;;;;133.90;122.80;;;18.00;67.80;;;;;;4993628;28;20051;-80
2022/06/23 01:11:34;;;;;;;134.55;123.50;;;18.00;67.70;;;;;;4993411;28;20251;-80
2022/06/23 01:14:15;;;;;;;134.93;123.85;;;18.00;68.30;;;;;;4993663;28;20055;-80
2022/06/23 01:16:45;;;;;;;133.88;122.80;;;17.90;67.60;;;;;;4993856;28;20078;-80
2022/06/23 01:20:08;;;;;;;134.43;123.47;;;17.90;68.30;;;;;;4993699;28;20473;-80
2022/06/23 01:22:50;;;;;;;134.57;123.43;;;17.80;67.00;;;;;;4993082;28;20090;-80
2022/06/23 01:25:42;;;;;;;135.00;123.80;;;17.80;68.70;;;;;;4993409;28;20050;-81
2022/06/23 01:28:16;;;;;;;135.77;124.60;;;17.70;68.80;;;;;;4980466;28;20055;-80
2022/06/23 01:30:49;;;;;;;133.10;122.20;;;17.70;69.30;;;;;;4992574;28;20115;-80
2022/06/23 01:33:22;;;;;;;134.00;122.93;;;17.70;69.70;;;;;;4977146;28;20133;-80
2022/06/23 01:35:58;;;;;;;134.93;123.63;;;17.70;69.90;;;;;;4993409;28;20051;-80
2022/06/23 01:38:28;;;;;;;134.15;123.15;;;17.60;70.10;;;;;;4992950;28;20141;-80
2022/06/23 01:41:00;;;;;;;135.18;123.97;;;17.60;70.30;;;;;;4993443;28;20129;-79
2022/06/23 01:43:37;;;;;;;137.80;126.40;;;17.50;70.80;;;;;;4993118;28;20106;-80
2022/06/23 01:46:10;;;;;;;134.80;123.68;;;17.50;70.90;;;;;;4993322;28;20090;-80
2022/06/23 01:48:54;;;;;;;134.35;123.25;;;17.40;71.50;;;;;;4994252;28;20145;-80
2022/06/23 01:51:29;;;;;;;135.25;123.88;;;17.40;71.70;;;;;;4976863;28;20513;-80
2022/06/23 01:54:08;;;;;;;133.73;122.72;;;17.30;72.40;;;;;;4993035;28;20106;-80
2022/06/23 01:56:42;;;;;;;135.05;123.85;;;17.20;72.40;;;;;;4993094;28;20122;-80
2022/06/23 01:59:41;;;;;;;135.18;123.97;;;17.20;73.10;;;;;;4992679;28;20090;-80
2022/06/23 02:02:26;;;;;;;134.65;123.30;;;17.10;72.40;;;;;;4992204;28;20050;-80
2022/06/23 02:05:00;;;;;;;132.63;121.47;;;17.10;73.60;;;;;;4975684;28;20088;-80
2022/06/23 02:07:33;;;;;;;135.15;123.75;;;17.10;74.10;;;;;;4976534;28;20043;-80
2022/06/23 02:10:07;;;;;;;135.38;123.82;;;17.10;74.20;;;;;;4992707;28;20118;-80
2022/06/23 02:12:43;;;;;;;135.20;123.72;;;17.10;74.60;;;;;;4992643;28;20791;-80
2022/06/23 02:15:18;;;;;;;133.65;122.47;;;17.10;74.70;;;;;;4992638;28;20050;-80
2022/06/23 02:17:52;;;;;;;135.10;123.70;;;17.10;75.00;;;;;;4992417;28;20144;-80
2022/06/23 02:20:27;;;;;;;135.83;124.40;;;17.00;75.20;;;;;;4976324;28;20047;-80
2022/06/23 02:23:09;;;;;;;134.07;122.88;;;17.00;75.20;;;;;;4993137;28;20134;-80
2022/06/23 02:25:43;;;;;;;134.63;123.25;;;17.00;75.30;;;;;;4992547;28;20488;-80
2022/06/23 02:28:17;;;;;;;134.63;123.43;;;17.00;75.60;;;;;;4992593;28;20085;-80
2022/06/23 02:30:48;;;;;;;133.88;122.20;;;16.90;75.80;;;;;;4992570;28;20336;-80
2022/06/23 02:33:22;;;;;;;132.85;121.65;;;16.90;75.80;;;;;;4976168;28;20043;-80
2022/06/23 02:35:54;;;;;;;135.02;123.63;;;16.90;75.70;;;;;;4976227;28;20058;-80
2022/06/23 02:38:26;;;;;;;135.10;123.60;;;16.90;75.90;;;;;;4991230;28;20537;-80
2022/06/23 02:40:58;;;;;;;133.65;122.43;;;16.90;75.70;;;;;;4993984;28;20058;-80
2022/06/23 02:43:30;;;;;;;136.02;123.22;;;16.80;75.70;;;;;;4992056;28;20499;-80
2022/06/23 02:46:25;;;;;;;134.30;122.60;;;16.80;75.90;;;;;;4975905;28;20122;-80
2022/06/23 02:49:31;;;;;;;132.73;121.40;;;16.80;75.50;;;;;;4992197;28;20062;-80
2022/06/23 02:52:13;;;;;;;134.27;122.78;;;16.80;75.50;;;;;;4982742;28;20137;-80
2022/06/23 02:55:10;;;;;;;135.02;123.53;;;16.70;75.80;;;;;;4979385;28;20101;-80
2022/06/23 02:57:43;;;;;;;133.65;122.30;;;16.70;75.70;;;;;;4995429;28;20137;-80
2022/06/23 03:00:19;;;;;;;134.32;122.82;;;16.70;75.80;;;;;;4995500;28;20137;-80
2022/06/23 03:02:57;;;;;;;135.02;123.40;;;16.70;76.30;;;;;;4995896;28;20078;-80
2022/06/23 03:05:32;;;;;;;133.00;121.68;;;16.50;77.20;;;;;;4995534;28;20092;-80
2022/06/23 03:08:02;;;;;;;;;;;16.40;77.60;;;;;;4995660;28;20042;-80
2022/06/23 03:10:33;;;;;;;133.70;122.00;;;16.30;75.80;;;;;;4978359;28;19926;-80
2022/06/23 03:13:08;;;;;;;133.77;122.25;;;16.30;78.00;;;;;;4996051;28;20055;-80
2022/06/23 03:15:41;;;;;;;133.75;122.25;;;16.30;78.40;;;;;;4995543;28;20531;-80
2022/06/23 03:18:18;;;;;;;134.20;122.70;;;16.30;78.60;;;;;;4995565;28;20134;-80
2022/06/23 03:20:49;;;;;;;134.93;123.32;;;16.30;78.60;;;;;;4996628;28;20058;-80
2022/06/23 03:23:24;;;;;;;134.20;122.75;;;16.30;79.00;;;;;;4995398;28;20113;-80
2022/06/23 03:26:01;;;;;;;135.80;124.30;;;16.30;79.10;;;;;;4978994;28;20051;-80
2022/06/23 03:28:34;;;;;;;135.45;123.75;;;16.20;79.30;;;;;;4995229;28;20071;-80
2022/06/23 03:31:06;;;;;;;133.10;121.57;;;16.20;79.50;;;;;;4979330;28;20055;-81
2022/06/23 03:33:39;;;;;;;132.13;120.88;;;16.20;79.60;;;;;;4979365;28;20547;-80
2022/06/23 03:36:19;;;;;;;134.18;122.72;;;16.20;79.30;;;;;;4979019;28;20051;-80
2022/06/23 03:41:40;;;;;;;131.90;120.55;;;16.10;79.70;;;;;;4995291;28;20073;-80
2022/06/23 03:44:16;;;;;;;134.77;123.18;;;16.00;79.70;;;;;;4978428;28;20086;-80
2022/06/23 03:46:49;;;;;;;134.82;123.22;;;16.00;80.30;;;;;;4994988;28;20121;-80
2022/06/23 03:49:34;;;;;;;133.70;122.10;;;16.00;80.80;;;;;;4978324;28;20058;-80
2022/06/23 03:52:04;;;;;;;134.20;122.50;;;15.90;81.30;;;;;;4995029;28;20054;-80
2022/06/23 03:54:47;;;;;;;135.30;123.40;;;15.90;81.60;;;;;;4995341;28;20129;-80
2022/06/23 03:57:21;;;;;;;134.48;122.78;;;15.90;82.20;;;;;;4994827;28;20545;-80
2022/06/23 04:00:01;;;;;;;135.25;123.35;;;15.80;82.80;;;;;;4994863;28;20059;-80
2022/06/23 04:02:34;;;;;;;136.00;124.18;;;15.80;83.40;;;;;;4978551;28;20063;-80
2022/06/23 04:05:15;;;;;;;136.00;123.87;;;15.80;84.10;;;;;;4978767;28;20051;-80
2022/06/23 04:07:47;;;;;;;133.75;122.07;;;15.80;84.40;;;;;;4995250;28;20523;-80
2022/06/23 04:10:20;;;;;;;133.38;121.55;;;15.80;84.80;;;;;;5081023;23;20149;-80
2022/06/23 04:12:53;;;;;;;135.07;123.18;;;15.90;85.30;;;;;;4994118;28;20062;-80
2022/06/23 04:15:27;;;;;;;135.82;124.03;;;15.80;85.50;;;;;;4993638;28;20051;-80
2022/06/23 04:17:58;;;;;;;136.05;124.20;;;15.90;85.90;;;;;;4975041;28;20062;-80
2022/06/23 04:20:33;;;;;;;133.80;122.00;;;15.90;85.70;;;;;;4975973;28;20075;-80
2022/06/23 04:23:01;;;;;;;;;;;15.90;86.20;;;;;;4974557;28;20540;-80
2022/06/23 04:25:41;;;;;;;132.50;120.68;;;15.90;83.10;;;;;;4974569;28;19926;-80
2022/06/23 04:28:22;;;;;;;133.50;121.68;;;15.90;86.10;;;;;;4975180;28;20090;-80
2022/06/23 04:30:49;;;;;;;133.20;121.40;;;15.90;86.90;;;;;;4974419;28;20052;-80
2022/06/23 04:33:20;;;;;;;135.07;122.88;;;15.90;87.10;;;;;;4974073;28;20529;-80
2022/06/23 04:35:52;;;;;;;134.70;122.53;;;15.90;87.50;;;;;;4974380;28;20059;-80
2022/06/23 04:38:25;;;;;;;134.48;122.65;;;16.00;87.70;;;;;;4973790;28;20499;-80
2022/06/23 04:41:12;;;;;;;133.02;121.05;;;15.90;88.10;;;;;;4974838;28;20044;-80
2022/06/23 04:43:43;;;;;;;133.98;122.22;;;16.00;87.80;;;;;;4974034;28;20079;-80
2022/06/23 04:46:14;;;;;;;133.65;121.82;;;16.00;88.70;;;;;;4973503;28;20150;-80
2022/06/23 04:48:47;;;;;;;132.32;120.43;;;15.90;89.10;;;;;;4973948;28;20115;-80
2022/06/23 04:51:25;;;;;;;134.43;122.60;;;16.00;89.10;;;;;;4973991;28;20818;-80
2022/06/23 04:53:58;;;;;;;135.38;123.53;;;16.00;89.80;;;;;;4973279;28;20065;-80
2022/06/23 04:56:33;;;;;;;137.45;125.63;;;16.00;90.30;;;;;;4972522;28;20047;-80
2022/06/23 04:59:07;;;;;;;135.20;123.30;;;16.00;90.70;;;;;;4989126;28;20143;-80
2022/06/23 05:01:40;;;;;;;135.40;123.63;;;16.00;91.10;;;;;;4991762;28;20553;-80
2022/06/23 05:04:16;;;;;;;137.85;125.93;;;16.00;91.40;;;;;;4982890;28;20509;-82
2022/06/23 05:06:46;;;;;;;137.00;124.80;;;16.00;91.50;;;;;;4987325;28;20074;-81
2022/06/23 05:09:19;;;;;;;137.25;124.97;;;16.00;91.70;;;;;;4974689;28;20106;-78
2022/06/23 05:11:51;;;;;;;137.15;125.15;;;16.00;92.10;;;;;;4983547;28;20110;-79
2022/06/23 05:14:24;;;;;;;135.68;123.68;;;16.10;92.30;;;;;;4980586;28;20111;-80
2022/06/23 05:16:56;;;;;;;137.00;125.07;;;16.00;92.70;;;;;;4982950;28;20541;-76
2022/06/23 05:19:28;;;;;;;127.10;116.05;;;16.10;92.90;;;;;;4977832;28;20056;-81
2022/06/23 05:22:00;;;;;;;134.05;122.18;;;16.00;93.10;;;;;;4956735;28;20110;-79
2022/06/23 05:24:29;;;;;;;130.88;118.97;;;16.00;93.40;;;;;;4983713;28;20046;-80
2022/06/23 05:26:59;;;;;;;133.55;121.03;;;16.00;93.60;;;;;;4973240;28;20062;-80
2022/06/23 05:29:33;;;;;;;131.23;119.15;;;16.10;93.80;;;;;;4990877;28;20141;-80
2022/06/23 05:32:05;;;;;;;132.82;120.55;;;16.10;93.90;;;;;;4991138;28;20173;-80
2022/06/23 05:34:35;;;;;;;126.82;115.32;;;16.20;94.10;;;;;;4986287;28;20083;-81
2022/06/23 05:37:12;;;;;;;131.20;119.40;;;16.20;94.20;;;;;;4990995;28;20197;-81
2022/06/23 05:39:45;;;;;;;130.43;118.72;;;16.30;94.40;;;;;;4970929;28;20133;-83
2022/06/23 05:42:17;;;;;;;129.40;118.03;;;16.40;94.50;;;;;;4983397;28;20125;-82
2022/06/23 05:44:49;;;;;;;131.98;120.18;;;16.40;94.60;;;;;;4982824;28;20065;-81
2022/06/23 05:47:19;;;;;;;132.10;120.50;;;16.40;94.60;;;;;;4965432;28;20054;-80
2022/06/23 05:49:50;;;;;;;129.38;118.07;;;16.50;94.60;;;;;;4987116;28;20053;-80
2022/06/23 05:52:23;;;;;;;131.63;120.13;;;16.60;94.60;;;;;;4973121;28;20054;-80
2022/06/23 05:54:56;;;;;;;135.10;123.32;;;16.60;94.80;;;;;;4971956;28;20058;-82
2022/06/23 05:57:28;;;;;;;135.55;123.72;;;16.60;94.80;;;;;;4970428;28;20086;-80
2022/06/23 06:00:03;;;;;;;145.18;122.95;;;16.80;94.80;;;;;;4967119;28;20051;-80
2022/06/23 06:03:02;;;;;;;130.38;118.80;;;16.80;94.80;;;;;;4901902;28;20346;-81
2022/06/23 06:05:34;;;;;;;135.45;123.65;;;16.90;94.70;;;;;;4992002;28;20051;-80
2022/06/23 06:08:06;;;;;;;131.57;120.15;;;17.00;94.90;;;;;;4990938;28;20046;-79
2022/06/23 06:10:35;;;;;;;130.38;118.97;;;17.00;94.90;;;;;;4992587;28;20057;-82
2022/06/23 06:13:04;;;;;;;134.02;122.43;;;17.10;95.00;;;;;;5005365;28;20073;-84
2022/06/23 06:15:34;;;;;;;129.63;118.38;;;17.10;95.00;;;;;;4989226;28;20078;-82
2022/06/23 06:18:08;;;;;;;130.80;119.47;;;17.20;95.00;;;;;;4987131;28;20137;-81
2022/06/23 06:20:37;;;;;;;129.85;118.35;;;17.30;95.00;;;;;;5013164;28;20054;-80
2022/06/23 06:23:11;;;;;;;127.90;116.68;;;17.30;95.00;;;;;;4996032;28;20141;-81
2022/06/23 06:25:40;;;;;;;133.32;121.50;;;17.40;95.00;;;;;;5011148;28;20090;-80
2022/06/23 06:28:16;;;;;;;131.98;120.50;;;17.50;95.00;;;;;;5010981;28;20056;-80
2022/06/23 06:30:51;;;;;;;130.15;118.97;;;17.50;94.90;;;;;;5011396;28;20515;-81
2022/06/23 06:33:30;;;;;;;134.18;122.35;;;17.60;94.80;;;;;;4995548;28;20050;-80
2022/06/23 06:35:57;;;;;;;134.13;122.43;;;17.70;94.70;;;;;;4991824;28;20165;-81
2022/06/23 06:38:28;;;;;;;133.05;121.32;;;17.70;94.60;;;;;;4991964;28;20081;-81
2022/06/23 06:40:58;;;;;;;133.82;122.03;;;17.80;94.70;;;;;;4993595;28;20131;-81
2022/06/23 06:43:29;;;;;;;132.02;120.65;;;17.80;94.60;;;;;;5007214;28;20100;-80
2022/06/23 06:45:58;;;;;;;132.68;121.05;;;17.90;94.60;;;;;;5011857;28;20480;-82
2022/06/23 06:48:30;;;;;;;137.40;125.60;;;17.90;94.50;;;;;;4989758;28;20911;-83
2022/06/23 06:51:01;;;;;;;134.82;123.32;;;18.00;94.60;;;;;;5012495;28;20053;-83
2022/06/23 06:53:35;;;;;;;135.48;123.80;;;18.10;94.50;;;;;;4992938;28;20125;-82
2022/06/23 06:56:07;;;;;;;133.80;122.15;;;18.20;94.50;;;;;;4982912;28;20093;-83
2022/06/23 06:58:42;;;;;;;137.45;125.57;;;18.20;94.50;;;;;;5009295;28;20054;-83
2022/06/23 07:01:13;;;;;;;137.13;125.50;;;18.30;94.40;;;;;;5009287;28;20500;-83
2022/06/23 07:03:45;;;;;;;133.68;121.72;;;18.40;94.30;;;;;;5008174;28;20046;-83
2022/06/23 07:06:17;;;;;;;137.20;125.70;;;18.40;94.20;;;;;;5007184;28;20105;-85
2022/06/23 07:08:51;;;;;;;138.27;126.68;;;18.50;94.30;;;;;;5011108;28;20493;-85
2022/06/23 07:11:22;;;;;;;135.45;124.00;;;18.60;94.30;;;;;;5010219;28;20560;-82
2022/06/23 07:13:57;;;;;;;136.35;124.70;;;18.60;94.30;;;;;;4992350;28;20046;-85
2022/06/23 07:16:31;;;;;;;141.13;129.10;;;18.70;94.30;;;;;;5004635;28;20136;-82
2022/06/23 07:19:02;;;;;;;136.40;124.90;;;18.80;94.30;;;;;;5010140;28;20046;-82
2022/06/23 07:21:35;;;;;;;136.85;125.18;;;18.80;94.20;;;;;;4992754;28;20106;-85
2022/06/23 07:24:12;;;;;;;139.20;127.22;;;18.90;94.20;;;;;;5000541;28;20481;-83
2022/06/23 07:26:44;;;;;;;142.57;124.30;;;19.00;94.00;;;;;;5010368;28;20566;-83
2022/06/23 07:29:22;;;;;;;134.40;122.97;;;19.10;93.90;;;;;;4994353;28;20101;-84
2022/06/23 07:32:01;;;;;;;138.77;124.82;;;19.20;93.90;;;;;;4994509;28;20058;-84
2022/06/23 07:34:33;;;;;;;134.70;123.22;;;19.30;93.80;;;;;;5010703;28;20054;-82
2022/06/23 07:37:05;;;;;;;135.80;123.90;;;19.30;93.70;;;;;;5005608;28;20548;-81
2022/06/23 07:39:38;;;;;;;132.93;121.07;;;19.40;93.50;;;;;;5004574;28;20057;-81
2022/06/23 07:42:10;;;;;;;134.15;122.35;;;19.50;93.40;;;;;;4978768;28;20510;-81
2022/06/23 07:44:42;;;;;;;135.95;123.82;;;19.50;93.30;;;;;;4994695;28;20109;-81
2022/06/23 07:47:10;;;;;;;135.32;123.95;;;19.60;93.10;;;;;;4995756;28;20082;-83
2022/06/23 07:49:37;;;;;;;134.60;123.20;;;19.70;93.00;;;;;;4985244;28;20054;-80
2022/06/23 07:52:05;;;;;;;139.05;127.65;;;19.80;92.80;;;;;;5014904;28;20141;-79
2022/06/23 07:54:34;;;;;;;136.15;124.95;;;19.90;92.70;;;;;;5005729;28;20047;-79
2022/06/23 07:57:01;;;;;;;138.25;126.65;;;20.00;92.80;;;;;;5012794;28;20152;-79
2022/06/23 07:59:37;;;;;;;136.93;125.55;;;20.00;92.80;;;;;;4989523;28;20552;-80
2022/06/23 08:02:11;;;;;;;138.02;126.53;;;20.10;92.70;;;;;;5012225;28;20081;-81
2022/06/23 08:04:52;;;;;;;140.18;128.57;;;20.20;92.60;;;;;;5012691;28;20057;-74
2022/06/23 08:07:20;;;;;;;141.45;129.63;;;20.30;92.60;;;;;;5027432;28;20516;-75
2022/06/23 08:09:52;;;;;;;141.10;129.60;;;20.40;92.40;;;;;;5014320;28;20061;-74
2022/06/23 08:18:02;;;;;;;138.20;127.00;;;20.60;91.90;;;;;;5014130;28;20054;-76
2022/06/23 08:20:34;;;;;;;138.00;126.75;;;20.70;91.50;;;;;;5013630;28;20058;-82
2022/06/23 08:23:03;;;;;;;140.20;128.98;;;20.80;91.20;;;;;;5003473;28;20579;-78
2022/06/23 08:25:31;;;;;;;142.57;131.27;;;20.90;91.10;;;;;;5013840;28;20138;-77
2022/06/23 08:27:59;;;;;;;142.98;131.88;;;21.00;91.10;;;;;;5010423;28;20051;-77
2022/06/23 08:30:27;;;;;;;141.52;130.48;;;21.10;90.70;;;;;;5013394;28;20089;-81
2022/06/23 08:32:55;;;;;;;142.05;130.77;;;21.20;90.20;;;;;;4988744;28;20154;-78
2022/06/23 08:35:26;;;;;;;145.57;133.73;;;21.30;90.10;;;;;;5013394;28;20891;-79
2022/06/23 08:37:57;;;;;;;149.30;137.70;;;21.40;89.30;;;;;;5065426;22;21476;-77
2022/06/23 08:40:37;;;;;;;144.68;133.48;;;21.50;89.10;;;;;;5016255;28;20046;-73
2022/06/23 08:43:13;;;;;;;147.93;136.00;;;21.60;88.70;;;;;;5024595;28;20135;-76
2022/06/23 08:45:44;;;;;;;146.15;135.07;;;21.70;88.60;;;;;;5034307;28;20159;-79
2022/06/23 08:48:20;;;;;;;146.18;135.05;;;21.80;87.70;;;;;;5028753;28;20113;-77
2022/06/23 08:50:52;;;;;;;144.75;133.95;;;21.90;88.00;;;;;;5030961;28;20492;-78
2022/06/23 08:53:24;;;;;;;149.32;137.82;;;22.00;88.10;;;;;;5022712;28;20504;-77
2022/06/23 08:55:59;;;;;;;147.77;136.60;;;22.10;87.60;;;;;;5031823;28;20135;-77
2022/06/23 08:58:34;;;;;;;150.07;137.75;;;22.10;87.00;;;;;;5006576;28;20175;-83
2022/06/23 09:01:09;;;;;;;144.20;132.75;;;22.30;86.20;;;;;;5010023;28;20138;-81
2022/06/23 09:03:45;;;;;;;215.57;140.70;;;22.40;86.50;;;;;;5032363;28;20057;-83
2022/06/23 09:06:31;;;;;;;146.73;135.73;;;22.50;86.10;;;;;;5030475;28;20045;-82
2022/06/23 09:09:10;;;;;;;150.52;139.32;;;22.50;85.40;;;;;;5031938;28;20084;-76
2022/06/23 09:11:47;;;;;;;151.35;139.52;;;22.70;84.20;;;;;;5032177;28;20551;-76
2022/06/23 09:14:34;;;;;;;152.73;141.15;;;22.80;84.10;;;;;;5030655;28;20533;-75
2022/06/23 09:17:20;;;;;;;161.20;144.23;;;22.90;83.60;;;;;;5025605;28;20153;-76
2022/06/23 09:19:59;;;;;;;154.05;141.23;;;23.00;82.80;;;;;;5024032;28;20108;-76
2022/06/23 09:22:51;;;;;;;152.02;140.77;;;23.10;82.20;;;;;;5027813;28;20531;-81
2022/06/23 09:25:28;;;;;;;153.55;142.05;;;23.10;81.60;;;;;;5002172;28;20046;-78
2022/06/23 09:28:15;;;;;;;152.70;141.60;;;23.30;81.20;;;;;;5006715;28;20085;-75
2022/06/23 09:31:05;;;;;;;156.02;144.65;;;23.40;80.20;;;;;;5021967;28;20050;-79
2022/06/23 09:33:40;;;;;;;156.38;143.93;;;23.50;79.40;;;;;;5030468;28;20053;-82
2022/06/23 09:36:51;;;;;;;157.27;145.55;;;23.60;77.60;;;;;;5016504;28;20152;-77
2022/06/23 09:39:38;;;;;;;155.43;144.15;;;23.80;77.10;;;;;;5035936;28;20070;-75
2022/06/23 09:42:22;;;;;;;156.68;145.35;;;23.90;76.70;;;;;;5025335;28;20550;-76
2022/06/23 09:45:05;;;;;;;157.27;145.73;;;24.00;75.80;;;;;;5031292;28;20062;-85
2022/06/23 09:48:14;;;;;;;160.07;148.50;;;24.10;77.10;;;;;;5028541;28;20141;-76
2022/06/23 09:50:57;;;;;;;158.65;147.25;;;24.20;75.80;;;;;;5023061;28;20547;-74
2022/06/23 09:53:45;;;;;;;;;;;24.30;74.30;;;;;;5031401;28;20125;-74
2022/06/23 09:56:39;;;;;;;158.57;146.48;;;24.40;75.10;;;;;;5025900;28;19929;-81
2022/06/23 09:59:39;;;;;;;201.90;150.07;;;24.50;75.40;;;;;;5032151;28;20141;-81
2022/06/23 10:02:19;;;;;;;154.48;143.43;;;24.60;75.40;;;;;;5032070;28;20108;-80
2022/06/23 10:05:12;;;;;;;154.88;143.30;;;24.60;74.80;;;;;;5015657;28;20054;-80
2022/06/23 10:08:14;;;;;;;156.88;145.02;;;24.80;74.30;;;;;;5015720;28;20544;-81
2022/06/23 10:10:55;;;;;;;239.35;155.10;;;24.80;74.00;;;;;;5031322;28;20124;-78
2022/06/23 10:13:41;;;;;;;157.77;146.65;;;25.00;72.80;;;;;;5026830;28;20141;-79
2022/06/23 10:16:23;;;;;;;158.95;145.57;;;25.00;73.00;;;;;;4912846;28;20054;-78
2022/06/23 10:19:05;;;;;;;159.60;148.13;;;25.10;73.00;;;;;;5026814;28;20554;-80
2022/06/23 10:21:41;;;;;;;158.50;147.15;;;25.20;73.90;;;;;;5011285;28;20050;-80
2022/06/23 10:24:28;;;;;;;158.02;146.82;;;25.40;73.30;;;;;;5002914;28;20238;-79
2022/06/23 10:27:13;;;;;;;156.25;144.95;;;25.40;72.40;;;;;;5029743;28;20050;-79
2022/06/23 10:30:03;;;;;;;161.10;149.90;;;25.50;71.40;;;;;;5026829;28;20554;-79
2022/06/23 10:33:01;;;;;;;152.57;141.43;;;25.60;70.70;;;;;;5030625;28;20053;-79
2022/06/23 10:35:47;;;;;;;159.88;148.65;;;25.70;70.80;;;;;;4997471;28;20109;-78
2022/06/23 10:38:30;;;;;;;162.73;150.85;;;25.80;70.90;;;;;;4993618;28;20050;-79
2022/06/23 10:41:36;;;;;;;159.93;148.52;;;25.90;69.90;;;;;;5046584;28;20579;-79
2022/06/23 10:44:38;;;;;;;255.15;159.93;;;26.00;69.50;;;;;;4990979;28;20047;-79
2022/06/23 10:47:11;;;;;;;;;;;26.10;69.80;;;;;;5017126;28;20116;-80
2022/06/23 10:49:52;;;;;;;160.27;148.77;;;26.20;68.70;;;;;;5029696;28;20804;-79
2022/06/23 10:53:02;;;;;;;161.70;150.52;;;26.30;68.70;;;;;;5040722;28;20116;-78
2022/06/23 10:55:47;;;;;;;165.75;153.35;;;26.40;69.30;;;;;;5009297;28;20652;-80
2022/06/23 10:58:42;;;;;;;162.65;150.40;;;26.50;67.20;;;;;;5009403;28;20081;-80
2022/06/23 11:01:37;;;;;;;160.48;149.38;;;26.60;67.10;;;;;;5010128;28;20058;-79
2022/06/23 11:04:52;;;;;;;163.00;151.80;;;26.70;66.50;;;;;;4997295;28;20137;-79
2022/06/23 11:07:49;;;;;;;168.98;152.70;;;26.80;65.40;;;;;;5020980;28;20045;-79
2022/06/23 11:10:30;;;;;;;162.50;151.48;;;27.00;66.30;;;;;;5028455;28;20055;-79
2022/06/23 11:13:10;;;;;;;161.68;150.50;;;27.00;65.90;;;;;;5027203;28;20084;-80
2022/06/23 11:15:47;;;;;;;161.75;150.80;;;27.10;65.80;;;;;;5033979;28;20049;-79
2022/06/23 11:18:26;;;;;;;162.05;150.95;;;27.20;65.10;;;;;;5031118;28;20148;-79
2022/06/23 11:21:05;;;;;;;163.80;152.80;;;27.30;64.70;;;;;;5014856;28;20137;-79
2022/06/23 11:23:45;;;;;;;161.57;150.57;;;27.40;63.40;;;;;;5032831;28;20137;-79
2022/06/23 11:26:25;;;;;;;167.05;155.63;;;27.50;63.80;;;;;;5034879;28;20054;-79
2022/06/23 11:29:06;;;;;;;160.27;149.73;;;27.60;63.00;;;;;;5034471;28;20081;-79
2022/06/23 11:31:44;;;;;;;164.95;154.00;;;27.60;62.80;;;;;;5033706;28;20085;-79
2022/06/23 11:34:31;;;;;;;163.20;152.45;;;27.70;62.70;;;;;;5016495;28;20102;-79
2022/06/23 11:37:31;;;;;;;165.90;154.95;;;27.80;62.10;;;;;;5035571;28;20058;-79
2022/06/23 11:40:12;;;;;;;166.25;155.02;;;27.90;61.60;;;;;;5015136;28;20148;-79
2022/06/23 11:43:04;;;;;;;164.35;152.38;;;27.90;60.70;;;;;;5033039;28;20508;-79
2022/06/23 11:45:42;;;;;;;162.77;151.77;;;28.00;60.60;;;;;;5031806;28;20077;-79
2022/06/23 11:48:23;;;;;;;166.07;154.52;;;28.00;60.20;;;;;;5034042;28;20554;-79
2022/06/23 11:51:00;;;;;;;163.52;152.77;;;28.10;59.90;;;;;;5018041;28;20050;-79
2022/06/23 11:53:44;;;;;;;165.60;154.38;;;28.20;59.40;;;;;;5011237;28;20622;-79
2022/06/23 11:56:21;;;;;;;165.15;154.38;;;28.30;58.40;;;;;;5014765;28;20051;-79
2022/06/23 11:59:10;;;;;;;160.73;150.20;;;28.30;58.90;;;;;;5029967;28;20058;-79
2022/06/23 12:01:37;;;;;;;167.65;156.57;;;28.40;58.60;;;;;;5027680;28;20054;-79
2022/06/23 12:04:38;;;;;;;166.00;155.00;;;28.50;58.80;;;;;;5015838;28;20533;-79
2022/06/23 12:07:13;;;;;;;;;;;28.60;58.70;;;;;;5014169;28;20054;-78
2022/06/23 12:09:46;;;;;;;163.85;153.15;;;28.70;58.90;;;;;;5014956;28;20055;-79
2022/06/23 12:12:14;;;;;;;165.55;154.68;;;28.80;58.00;;;;;;5015233;28;20078;-79
2022/06/23 12:14:42;;;;;;;165.65;154.77;;;28.80;57.90;;;;;;5014060;28;20352;-78
2022/06/23 12:17:16;;;;;;;169.30;158.35;;;28.90;57.20;;;;;;5015091;28;20046;-79
2022/06/23 12:19:48;;;;;;;169.45;158.27;;;29.00;56.70;;;;;;5017655;28;20599;-79
2022/06/23 12:22:22;;;;;;;173.57;160.27;;;29.10;57.20;;;;;;5033293;28;20497;-79
2022/06/23 12:25:00;;;;;;;167.45;156.63;;;29.20;56.60;;;;;;5033258;28;20116;-79
2022/06/23 12:27:35;;;;;;;174.43;162.88;;;29.30;55.20;;;;;;5032989;28;20050;-80
2022/06/23 12:30:08;;;;;;;168.90;157.55;;;29.40;54.80;;;;;;5032308;28;20201;-78
2022/06/23 12:32:45;;;;;;;168.07;157.15;;;29.50;54.70;;;;;;4968207;28;20085;-78
2022/06/23 12:35:22;;;;;;;174.57;163.45;;;29.60;54.20;;;;;;5026912;28;20050;-79
2022/06/23 12:37:53;;;;;;;172.55;161.52;;;29.60;54.40;;;;;;5030951;28;20109;-79
2022/06/23 12:40:27;;;;;;;173.93;162.90;;;29.70;53.60;;;;;;5031262;28;20046;-80
2022/06/23 12:42:59;;;;;;;173.50;162.57;;;29.80;54.00;;;;;;5035988;28;20840;-78
2022/06/23 12:45:47;;;;;;;176.50;164.10;;;29.80;53.00;;;;;;5029977;28;20984;-79
2022/06/23 12:48:32;;;;;;;172.07;161.18;;;29.90;53.00;;;;;;5003933;28;20058;-79
2022/06/23 12:51:06;;;;;;;172.48;161.55;;;30.00;51.60;;;;;;5033137;28;20140;-79
2022/06/23 12:53:54;;;;;;;171.02;160.18;;;30.00;51.50;;;;;;5056729;23;20407;-78
2022/06/23 12:56:42;;;;;;;172.27;161.43;;;30.20;51.10;;;;;;5013756;28;20049;-78
2022/06/23 12:59:18;;;;;;;168.50;157.23;;;30.20;49.30;;;;;;5040689;28;20336;-79
2022/06/23 13:01:52;;;;;;;169.52;158.80;;;30.20;50.10;;;;;;5015895;28;20309;-78
2022/06/23 13:04:30;;;;;;;168.50;157.90;;;30.30;49.70;;;;;;5031379;28;20074;-80
2022/06/23 13:07:04;;;;;;;170.27;159.68;;;30.30;49.60;;;;;;5038910;28;20532;-80